createdAt,value
2019-01-08T00:00:52.090Z,18.07
2019-01-08T00:03:31.770Z,18.07
2019-01-08T00:06:11.825Z,16.07
2019-01-08T00:08:51.822Z,16.40
2019-01-08T00:11:31.737Z,16.10
2019-01-08T00:14:12.024Z,15.80
2019-01-08T00:16:52.318Z,13.77
2019-01-08T00:19:31.990Z,15.60
2019-01-08T00:22:12.074Z,13.30
2019-01-08T00:24:51.986Z,14.70
2019-01-08T00:27:32.537Z,14.63
2019-01-08T00:30:12.192Z,17.37
2019-01-08T00:32:52.500Z,16.97
2019-01-08T00:35:32.446Z,14.07
2019-01-08T00:38:12.288Z,16.47
2019-01-08T00:40:52.319Z,15.53
2019-01-08T00:43:32.292Z,14.93
2019-01-08T00:46:12.252Z,12.60
2019-01-08T00:48:53.071Z,15.00
2019-01-08T00:51:33.408Z,13.13
2019-01-08T00:54:13.261Z,12.37
2019-01-08T00:56:53.265Z,11.70
2019-01-08T00:59:33.614Z,11.90
2019-01-08T01:02:13.400Z,9.93
2019-01-08T01:04:53.388Z,10.23
2019-01-08T01:07:33.283Z,11.70
2019-01-08T01:10:13.280Z,12.70
2019-01-08T01:12:53.159Z,9.53
2019-01-08T01:15:33.270Z,11.50
2019-01-08T01:18:13.026Z,12.47
2019-01-08T01:20:53.707Z,10.40
2019-01-08T01:23:21.388Z,8.57
2019-01-08T01:26:08.391Z,13.00
2019-01-08T01:28:59.926Z,17.27
2019-01-08T01:31:37.139Z,10.33
2019-01-08T01:34:17.955Z,9.53
2019-01-08T01:36:58.295Z,11.03
2019-01-08T01:39:38.211Z,11.70
2019-01-08T01:42:18.205Z,8.20
2019-01-08T01:44:58.198Z,13.13
2019-01-08T01:47:38.232Z,14.67
2019-01-08T01:50:19.103Z,13.43
2019-01-08T01:52:59.257Z,12.30
2019-01-08T01:55:39.581Z,9.13
2019-01-08T01:58:19.274Z,14.70
2019-01-08T02:00:59.219Z,13.47
2019-01-08T02:03:39.337Z,11.67
2019-01-08T02:06:19.401Z,13.57
2019-01-08T02:08:59.484Z,18.00
2019-01-08T02:11:40.985Z,13.80
2019-01-08T02:14:20.661Z,11.60
2019-01-08T02:17:00.678Z,11.20
2019-01-08T02:19:40.468Z,10.17
2019-01-08T02:22:20.455Z,8.03
2019-01-08T02:25:00.976Z,11.73
2019-01-08T02:27:40.589Z,13.37
2019-01-08T02:30:20.694Z,13.83
2019-01-08T02:33:00.777Z,10.57
2019-01-08T02:35:40.707Z,12.07
2019-01-08T02:38:20.831Z,13.00
2019-01-08T02:41:01.046Z,11.67
2019-01-08T02:43:41.108Z,11.37
2019-01-08T02:46:21.255Z,13.87
2019-01-08T02:49:01.141Z,14.63
2019-01-08T02:51:41.302Z,11.13
2019-01-08T02:54:21.416Z,10.37
2019-01-08T02:57:01.421Z,16.60
2019-01-08T02:59:41.395Z,11.73
2019-01-08T03:02:21.309Z,13.27
2019-01-08T03:05:01.372Z,14.70
2019-01-08T03:07:41.449Z,14.10
2019-01-08T03:10:21.401Z,17.17
2019-01-08T03:13:01.374Z,19.37
2019-01-08T03:15:28.949Z,16.53
2019-01-08T03:18:15.999Z,20.47
2019-01-08T03:21:03.007Z,14.30
2019-01-08T03:23:43.369Z,12.43
2019-01-08T03:26:23.428Z,16.87
2019-01-08T03:29:03.660Z,15.17
2019-01-08T03:31:31.238Z,16.37
2019-01-08T03:34:18.259Z,14.20
2019-01-08T03:37:05.641Z,20.60
2019-01-08T03:39:45.603Z,12.73
2019-01-08T03:42:25.711Z,18.83
2019-01-08T03:45:05.684Z,15.07
2019-01-08T03:47:45.755Z,13.80
2019-01-08T03:50:25.749Z,15.60
2019-01-08T03:53:05.624Z,12.93
2019-01-08T03:55:45.832Z,17.67
2019-01-08T03:58:25.793Z,15.90
2019-01-08T04:01:05.753Z,14.97
2019-01-08T04:03:45.686Z,16.27
2019-01-08T04:06:25.674Z,18.63
2019-01-08T04:09:05.559Z,13.60
2019-01-08T04:11:45.498Z,15.53
2019-01-08T04:14:25.624Z,15.93
2019-01-08T04:17:05.723Z,18.80
2019-01-08T04:19:45.816Z,19.87
2019-01-08T04:22:25.826Z,18.30
2019-01-08T04:24:53.421Z,14.63
2019-01-08T04:27:40.479Z,15.23
2019-01-08T04:30:27.485Z,15.90
2019-01-08T04:33:14.511Z,16.07
2019-01-08T04:35:54.733Z,16.67
2019-01-08T04:38:34.622Z,14.07
2019-01-08T04:41:02.312Z,17.33
2019-01-08T04:43:49.377Z,18.03
2019-01-08T04:49:44.708Z,16.97
2019-01-08T04:52:24.631Z,10.73
2019-01-08T04:55:04.534Z,16.63
2019-01-08T04:57:44.620Z,22.40
2019-01-08T05:00:24.648Z,21.53
2019-01-08T05:03:04.646Z,15.87
2019-01-08T05:05:44.824Z,15.50
2019-01-08T05:08:24.941Z,26.00
2019-01-08T05:11:04.873Z,15.93
2019-01-08T05:13:32.527Z,15.13
2019-01-08T05:16:12.916Z,17.57
2019-01-08T05:18:53.538Z,24.97
2019-01-08T05:21:21.148Z,17.23
2019-01-08T05:24:08.156Z,18.70
2019-01-08T05:26:47.862Z,15.17
2019-01-08T05:29:27.921Z,17.03
2019-01-08T05:32:07.976Z,15.10
2019-01-08T05:34:48.205Z,18.70
2019-01-08T05:37:28.339Z,16.17
2019-01-08T05:40:08.528Z,23.00
2019-01-08T05:42:48.396Z,19.37
2019-01-08T05:45:28.355Z,13.90
2019-01-08T05:48:11.842Z,16.27
2019-01-08T05:50:52.226Z,19.07
2019-01-08T05:56:19.729Z,21.30
2019-01-08T05:58:59.412Z,18.53
2019-01-08T06:01:39.386Z,19.30
2019-01-08T06:04:19.473Z,17.77
2019-01-08T06:06:59.795Z,19.70
2019-01-08T06:09:40.692Z,16.10
2019-01-08T06:12:20.718Z,17.77
2019-01-08T06:15:00.836Z,16.33
2019-01-08T06:17:41.058Z,19.40
2019-01-08T06:20:20.885Z,17.57
2019-01-08T06:23:00.956Z,16.33
2019-01-08T06:25:40.902Z,15.57
2019-01-08T06:28:21.006Z,14.63
2019-01-08T06:31:00.914Z,15.87
2019-01-08T06:33:43.416Z,20.77
2019-01-08T06:36:22.946Z,20.03
2019-01-08T06:39:04.218Z,18.27
2019-01-08T06:44:31.269Z,19.37
2019-01-08T06:49:59.976Z,18.07
2019-01-08T06:52:39.990Z,14.83
2019-01-08T06:55:20.200Z,15.53
2019-01-08T06:58:00.728Z,19.60
2019-01-08T07:00:40.742Z,16.53
2019-01-08T07:03:20.735Z,17.77
2019-01-08T07:05:48.544Z,21.30
2019-01-08T07:08:35.680Z,15.03
2019-01-08T07:11:15.334Z,15.43
2019-01-08T07:13:55.300Z,17.10
2019-01-08T07:16:35.152Z,16.27
2019-01-08T07:19:17.045Z,15.33
2019-01-08T07:21:57.110Z,13.77
2019-01-08T07:24:36.918Z,14.50
2019-01-08T07:27:17.110Z,13.20
2019-01-08T07:29:57.009Z,14.03
2019-01-08T07:32:36.930Z,16.40
2019-01-08T07:35:16.952Z,12.37
2019-01-08T07:37:56.776Z,18.43
2019-01-08T07:43:22.712Z,16.40
2019-01-08T07:46:02.768Z,19.20
2019-01-08T07:48:42.501Z,14.77
2019-01-08T07:51:22.750Z,16.93
2019-01-08T07:54:02.633Z,15.00
2019-01-08T07:56:42.643Z,14.40
2019-01-08T07:59:22.936Z,20.03
2019-01-08T08:02:03.070Z,13.77
2019-01-08T08:04:47.521Z,13.30
2019-01-08T08:10:37.616Z,12.87
2019-01-08T08:13:18.153Z,18.47
2019-01-08T08:15:58.224Z,17.57
2019-01-08T08:18:38.447Z,17.93
2019-01-08T08:21:19.767Z,15.23
2019-01-08T08:23:59.400Z,13.73
2019-01-08T08:26:39.304Z,18.23
2019-01-08T08:29:19.230Z,15.80
2019-01-08T08:31:59.372Z,18.00
2019-01-08T08:34:39.156Z,9.77
2019-01-08T08:37:19.060Z,11.53
2019-01-08T08:39:59.075Z,15.63
2019-01-08T08:42:38.956Z,10.13
2019-01-08T08:45:18.994Z,16.60
2019-01-08T08:47:58.844Z,17.47
2019-01-08T08:50:38.872Z,15.80
2019-01-08T08:53:19.962Z,15.30
2019-01-08T08:56:00.012Z,13.57
2019-01-08T08:58:40.040Z,12.07
2019-01-08T09:01:20.084Z,11.30
2019-01-08T09:04:00.274Z,10.60
2019-01-08T09:06:40.199Z,11.97
2019-01-08T09:09:20.170Z,6.43
2019-01-08T09:12:00.064Z,12.43
2019-01-08T09:14:40.138Z,9.53
2019-01-08T09:20:10.389Z,9.80
2019-01-08T09:22:50.984Z,9.37
2019-01-08T09:25:30.987Z,9.50
2019-01-08T09:28:10.689Z,8.50
2019-01-08T09:30:50.591Z,11.97
2019-01-08T09:36:16.633Z,10.27
2019-01-08T09:38:56.797Z,9.47
2019-01-08T09:41:36.694Z,10.67
2019-01-08T09:44:16.511Z,8.77
2019-01-08T09:46:57.044Z,6.90
2019-01-08T09:49:36.681Z,9.40
2019-01-08T09:52:16.745Z,11.70
2019-01-08T09:54:56.892Z,6.60
2019-01-08T09:57:36.737Z,9.27
2019-01-08T10:00:16.727Z,10.20
2019-01-08T10:02:56.653Z,9.77
2019-01-08T10:05:36.475Z,10.30
2019-01-08T10:08:16.537Z,9.57
2019-01-08T10:10:56.514Z,5.40
2019-01-08T10:13:36.344Z,9.33
2019-01-08T10:16:16.158Z,12.70
2019-01-08T10:18:56.079Z,9.17
2019-01-08T10:21:36.054Z,4.53
2019-01-08T10:24:16.174Z,9.00
2019-01-08T10:26:56.126Z,9.43
2019-01-08T10:29:36.115Z,9.03
2019-01-08T10:32:16.195Z,9.70
2019-01-08T10:34:56.272Z,12.30
2019-01-08T10:37:36.283Z,10.37
2019-01-08T10:40:16.187Z,13.30
2019-01-08T10:42:56.258Z,12.77
2019-01-08T10:45:36.235Z,9.83
2019-01-08T10:48:16.092Z,13.97
2019-01-08T10:50:56.047Z,17.47
2019-01-08T10:53:36.126Z,8.43
2019-01-08T10:56:16.137Z,9.23
2019-01-08T10:58:56.015Z,12.70
2019-01-08T11:01:40.445Z,10.17
2019-01-08T11:07:01.255Z,11.90
2019-01-08T11:09:41.185Z,11.50
2019-01-08T11:12:21.350Z,14.67
2019-01-08T11:15:01.353Z,13.03
2019-01-08T11:17:41.606Z,12.30
2019-01-08T11:20:21.861Z,14.60
2019-01-08T11:23:01.796Z,15.30
2019-01-08T11:25:41.869Z,16.73
2019-01-08T11:28:21.947Z,15.27
2019-01-08T11:31:02.040Z,15.90
2019-01-08T11:33:42.233Z,14.57
2019-01-08T11:36:22.139Z,12.87
2019-01-08T11:39:02.109Z,17.00
2019-01-08T11:41:42.149Z,15.67
2019-01-08T11:44:22.149Z,12.70
2019-01-08T11:47:02.173Z,18.00
2019-01-08T11:49:29.788Z,15.80
2019-01-08T11:52:16.757Z,14.60
2019-01-08T11:54:57.207Z,13.33
2019-01-08T11:57:37.326Z,11.97
2019-01-08T12:00:17.783Z,12.83
2019-01-08T12:02:58.031Z,12.43
2019-01-08T12:05:38.125Z,13.70
2019-01-08T12:08:18.305Z,13.40
2019-01-08T12:10:58.593Z,14.70
2019-01-08T12:13:38.323Z,15.70
2019-01-08T12:16:18.161Z,17.03
2019-01-08T12:18:58.222Z,13.13
2019-01-08T12:21:38.378Z,17.87
2019-01-08T12:24:18.562Z,20.03
2019-01-08T12:26:58.545Z,17.60
2019-01-08T12:29:38.428Z,14.23
2019-01-08T12:32:18.480Z,15.97
2019-01-08T12:34:58.470Z,25.17
2019-01-08T12:37:38.567Z,22.57
2019-01-08T12:40:18.491Z,28.10
2019-01-08T12:42:58.309Z,20.83
2019-01-08T12:45:38.225Z,21.50
2019-01-08T12:48:18.141Z,26.43
2019-01-08T12:50:58.026Z,23.00
2019-01-08T12:53:38.107Z,20.60
2019-01-08T12:56:18.275Z,17.10
2019-01-08T12:58:58.413Z,17.47
2019-01-08T13:01:38.343Z,16.57
2019-01-08T13:04:18.381Z,15.53
2019-01-08T13:06:58.371Z,26.53
2019-01-08T13:09:38.467Z,21.47
2019-01-08T13:12:18.737Z,19.43
2019-01-08T13:14:58.831Z,14.70
2019-01-08T13:17:38.857Z,25.07
2019-01-08T13:20:18.818Z,25.63
2019-01-08T13:22:58.695Z,19.77
2019-01-08T13:25:38.620Z,28.40
2019-01-08T13:28:18.516Z,20.23
2019-01-08T13:30:58.761Z,24.13
2019-01-08T13:33:38.753Z,17.77
2019-01-08T13:36:18.607Z,18.10
2019-01-08T13:38:46.175Z,27.83
2019-01-08T13:41:33.187Z,20.93
2019-01-08T13:44:20.231Z,21.83
2019-01-08T13:47:00.609Z,26.57
2019-01-08T13:49:40.780Z,14.87
2019-01-08T13:52:20.779Z,20.93
2019-01-08T13:55:01.345Z,22.83
2019-01-08T13:57:41.979Z,20.00
2019-01-08T14:00:22.106Z,15.83
2019-01-08T14:03:02.160Z,21.70
2019-01-08T14:05:42.058Z,19.43
2019-01-08T14:08:23.491Z,16.00
2019-01-08T14:11:03.163Z,20.63
2019-01-08T14:13:43.119Z,22.37
2019-01-08T14:16:23.017Z,16.00
2019-01-08T14:19:02.971Z,21.37
2019-01-08T14:21:43.239Z,28.17
2019-01-08T14:24:10.857Z,20.27
2019-01-08T14:26:57.916Z,18.40
2019-01-08T14:29:44.955Z,19.47
2019-01-08T14:32:25.206Z,21.60
2019-01-08T14:35:05.272Z,26.00
2019-01-08T14:41:00.637Z,23.80
2019-01-08T14:43:40.426Z,21.13
2019-01-08T14:46:20.486Z,18.87
2019-01-08T14:49:00.501Z,23.77
2019-01-08T14:51:40.474Z,22.77
2019-01-08T14:54:20.471Z,20.27
2019-01-08T14:57:00.534Z,23.80
2019-01-08T14:59:41.534Z,21.33
2019-01-08T15:02:21.401Z,26.53
2019-01-08T15:07:44.195Z,23.20
2019-01-08T15:10:23.972Z,20.47
2019-01-08T15:12:51.693Z,24.93
2019-01-08T15:15:31.883Z,24.27
2019-01-08T15:18:11.882Z,25.00
2019-01-08T15:20:51.721Z,23.97
2019-01-08T15:23:31.774Z,18.00
2019-01-08T15:26:11.913Z,22.27
2019-01-08T15:28:52.092Z,19.40
2019-01-08T15:34:15.315Z,23.87
2019-01-08T15:36:55.325Z,20.83
2019-01-08T15:39:35.414Z,26.20
2019-01-08T15:42:15.410Z,18.30
2019-01-08T15:44:55.242Z,21.77
2019-01-08T15:47:35.200Z,17.87
2019-01-08T15:50:15.338Z,22.67
2019-01-08T15:52:55.390Z,17.47
2019-01-08T15:55:35.298Z,26.57
2019-01-08T16:00:58.277Z,25.83
2019-01-08T16:06:21.425Z,18.47
2019-01-08T16:09:01.568Z,19.47
2019-01-08T16:11:41.831Z,22.77
2019-01-08T16:14:21.835Z,15.63
2019-01-08T16:17:02.974Z,17.53
2019-01-08T16:22:26.755Z,17.13
2019-01-08T16:25:06.641Z,23.43
2019-01-08T16:27:46.684Z,22.63
2019-01-08T16:30:28.762Z,17.47
2019-01-08T16:33:15.860Z,20.03
2019-01-08T16:35:50.446Z,13.00
2019-01-08T16:38:31.824Z,13.43
2019-01-08T16:43:48.867Z,14.33
2019-01-08T16:46:35.914Z,11.47
2019-01-08T16:49:19.804Z,11.90
2019-01-08T16:52:00.583Z,14.73
2019-01-08T16:54:40.599Z,4.97
2019-01-08T16:57:20.737Z,9.80
2019-01-08T17:00:00.915Z,10.43
2019-01-08T17:02:40.864Z,8.77
2019-01-08T17:08:06.880Z,18.43
2019-01-08T17:10:46.978Z,18.53
2019-01-08T17:13:27.126Z,18.47
2019-01-08T17:16:07.114Z,14.67
2019-01-08T17:18:48.595Z,21.87
2019-01-08T17:21:29.048Z,13.20
2019-01-08T17:24:09.126Z,17.73
2019-01-08T17:26:56.224Z,16.53
2019-01-08T17:32:22.384Z,19.93
2019-01-08T17:40:31.854Z,12.27
2019-01-08T17:43:11.453Z,9.00
2019-01-08T17:45:51.607Z,9.67
2019-01-08T17:51:20.587Z,8.83
2019-01-08T17:56:49.662Z,10.87
2019-01-08T17:59:29.937Z,8.97
2019-01-08T18:02:09.946Z,9.87
2019-01-08T18:04:49.898Z,13.83
2019-01-08T18:07:31.051Z,10.63
2019-01-08T18:10:10.797Z,15.47
2019-01-08T18:12:50.801Z,16.80
2019-01-08T18:15:30.742Z,15.07
2019-01-08T18:18:11.984Z,17.57
2019-01-08T18:20:52.529Z,19.27
2019-01-08T18:23:32.791Z,21.87
2019-01-08T18:29:19.014Z,16.17
2019-01-08T18:31:59.027Z,15.10
2019-01-08T18:34:38.935Z,16.73
2019-01-08T18:37:19.042Z,17.37
2019-01-08T18:39:59.039Z,18.67
2019-01-08T18:42:38.977Z,15.30
2019-01-08T18:45:18.848Z,15.33
2019-01-08T18:47:58.785Z,17.17
2019-01-08T18:50:38.949Z,16.73
2019-01-08T18:53:18.828Z,17.43
2019-01-08T18:56:00.302Z,15.83
2019-01-08T18:58:40.853Z,21.13
2019-01-08T19:01:21.967Z,18.83
2019-01-08T19:09:31.742Z,15.27
2019-01-08T19:12:20.716Z,17.63
2019-01-08T19:15:09.535Z,20.40
2019-01-08T19:17:32.615Z,18.50
2019-01-08T19:20:15.991Z,16.50
2019-01-08T19:22:55.998Z,13.10
2019-01-08T19:25:36.616Z,17.63
2019-01-08T19:28:16.337Z,15.10
2019-01-08T19:30:56.201Z,10.30
2019-01-08T19:33:36.258Z,11.13
2019-01-08T19:36:16.144Z,12.17
2019-01-08T19:41:39.060Z,10.90
2019-01-08T19:44:19.140Z,11.60
2019-01-08T19:46:59.496Z,15.97
2019-01-08T19:52:10.502Z,18.50
2019-01-08T19:54:57.556Z,12.13
2019-01-08T19:57:37.657Z,13.37
2019-01-08T20:00:17.626Z,13.17
2019-01-08T20:02:57.491Z,15.90
2019-01-08T20:05:37.334Z,17.10
2019-01-08T20:08:18.775Z,19.73
2019-01-08T20:10:59.313Z,15.97
2019-01-08T20:19:11.036Z,15.30
2019-01-08T20:21:53.005Z,14.37
2019-01-08T20:24:34.590Z,19.83
2019-01-08T20:27:15.146Z,17.43
2019-01-08T20:29:42.903Z,11.30
2019-01-08T20:32:33.030Z,10.60
2019-01-08T20:35:14.411Z,10.77
2019-01-08T20:37:42.355Z,10.70
2019-01-08T20:40:29.404Z,11.87
2019-01-08T20:43:16.415Z,14.97
2019-01-08T20:45:56.766Z,12.67
2019-01-08T20:48:36.774Z,11.57
2019-01-08T20:51:16.905Z,15.67
2019-01-08T20:53:56.902Z,13.73
2019-01-08T20:56:36.877Z,18.23
2019-01-08T20:59:17.017Z,15.03
2019-01-08T21:01:57.038Z,10.60
2019-01-08T21:07:22.898Z,16.07
2019-01-08T21:10:02.739Z,16.87
2019-01-08T21:12:44.127Z,13.97
2019-01-08T21:15:23.844Z,14.80
2019-01-08T21:18:03.820Z,27.43
2019-01-08T21:20:43.880Z,18.63
2019-01-08T21:23:23.766Z,16.53
2019-01-08T21:26:03.790Z,18.33
2019-01-08T21:28:43.792Z,13.87
2019-01-08T21:31:23.801Z,15.13
2019-01-08T21:34:03.754Z,17.33
2019-01-08T21:36:43.930Z,23.63
2019-01-08T21:39:25.299Z,14.60
2019-01-08T21:44:48.060Z,17.00
2019-01-08T21:47:29.269Z,16.80
2019-01-08T21:50:09.018Z,13.13
2019-01-08T21:52:49.207Z,13.70
2019-01-08T21:55:29.173Z,18.03
2019-01-08T21:58:09.086Z,25.77
2019-01-08T22:00:49.202Z,17.37
2019-01-08T22:03:28.979Z,18.13
2019-01-08T22:06:09.004Z,16.23
2019-01-08T22:08:49.041Z,16.83
2019-01-08T22:11:28.889Z,18.07
2019-01-08T22:16:53.464Z,13.73
2019-01-08T22:19:35.219Z,14.70
2019-01-08T22:22:15.245Z,14.87
2019-01-08T22:24:55.255Z,10.97
2019-01-08T22:30:21.358Z,17.17
2019-01-08T22:33:01.335Z,17.17
2019-01-08T22:35:41.210Z,16.47
2019-01-08T22:38:21.055Z,13.20
2019-01-08T22:41:01.286Z,14.87
2019-01-08T22:43:41.191Z,19.93
2019-01-08T22:46:21.143Z,12.43
2019-01-08T22:49:01.065Z,14.00
2019-01-08T22:51:41.025Z,16.20
2019-01-08T22:54:21.011Z,13.40
2019-01-08T22:57:01.095Z,14.83
2019-01-08T22:59:41.085Z,16.93
2019-01-08T23:02:21.175Z,15.23
2019-01-08T23:05:01.176Z,17.40
2019-01-08T23:07:41.062Z,17.90
2019-01-08T23:10:21.037Z,18.83
2019-01-08T23:13:01.075Z,13.63
2019-01-08T23:15:41.006Z,16.93
2019-01-08T23:18:20.960Z,14.77
2019-01-08T23:21:01.006Z,18.40
2019-01-08T23:23:41.141Z,21.73
2019-01-08T23:26:21.193Z,18.13
2019-01-08T23:29:01.139Z,18.23
2019-01-08T23:31:41.150Z,19.77
2019-01-08T23:34:21.093Z,15.93
2019-01-08T23:37:00.943Z,17.27
2019-01-08T23:39:40.912Z,17.37
2019-01-08T23:42:20.769Z,17.23
2019-01-08T23:45:00.809Z,14.60
2019-01-08T23:47:40.842Z,17.97
2019-01-08T23:50:20.847Z,18.77
2019-01-08T23:53:01.034Z,17.93
2019-01-08T23:55:41.223Z,11.70
2019-01-08T23:58:21.117Z,20.40
